createdAt,value
2022-12-25T00:02:09.404Z,1.25
2022-12-25T00:04:38.948Z,1.23
2022-12-25T00:07:08.496Z,1.23
2022-12-25T00:09:38.552Z,1.10
2022-12-25T00:12:08.134Z,0.90
2022-12-25T00:14:37.880Z,1.27
2022-12-25T00:17:07.446Z,1.10
2022-12-25T00:19:36.985Z,0.95
2022-12-25T00:22:06.544Z,1.35
2022-12-25T00:24:36.143Z,1.67
2022-12-25T00:27:05.742Z,1.48
2022-12-25T00:29:35.826Z,1.88
2022-12-25T00:32:05.613Z,1.20
2022-12-25T00:34:35.781Z,1.08
2022-12-25T00:37:05.368Z,1.15
2022-12-25T00:39:34.911Z,1.20
2022-12-25T00:42:22.707Z,1.27
2022-12-25T00:44:53.276Z,1.20
2022-12-25T00:47:22.901Z,1.27
2022-12-25T00:49:52.476Z,1.10
2022-12-25T00:52:22.095Z,1.10
2022-12-25T00:54:51.699Z,1.40
2022-12-25T00:57:21.497Z,1.20
2022-12-25T00:59:51.488Z,1.50
2022-12-25T01:02:27.129Z,1.85
2022-12-25T01:04:58.269Z,1.50
2022-12-25T01:07:29.078Z,1.48
2022-12-25T01:10:17.303Z,2.08
2022-12-25T01:12:47.430Z,1.52
2022-12-25T01:15:17.069Z,1.60
2022-12-25T01:17:47.036Z,1.45
2022-12-25T01:20:18.169Z,1.17
2022-12-25T01:22:48.239Z,1.60
2022-12-25T01:25:18.241Z,1.42
2022-12-25T01:27:47.780Z,1.65
2022-12-25T01:30:17.373Z,1.48
2022-12-25T01:32:47.031Z,1.70
2022-12-25T01:35:16.744Z,1.83
2022-12-25T01:37:46.673Z,1.45
2022-12-25T01:40:16.213Z,1.50
2022-12-25T01:42:46.261Z,1.75
2022-12-25T01:45:21.687Z,2.13
2022-12-25T01:47:52.285Z,3.60
2022-12-25T01:50:22.698Z,2.90
2022-12-25T01:52:53.092Z,2.85
2022-12-25T01:55:24.291Z,2.55
2022-12-25T01:57:54.133Z,2.17
2022-12-25T02:00:24.107Z,2.00
2022-12-25T02:02:54.236Z,2.45
2022-12-25T02:05:30.893Z,2.20
2022-12-25T02:08:05.608Z,1.80
2022-12-25T02:10:35.421Z,2.03
2022-12-25T02:13:05.374Z,2.45
2022-12-25T02:16:31.143Z,2.63
2022-12-25T02:19:11.163Z,2.53
2022-12-25T02:22:12.189Z,2.83
2022-12-25T02:25:09.941Z,2.95
2022-12-25T02:30:48.084Z,2.60
2022-12-25T02:33:51.124Z,2.40
2022-12-25T02:36:27.206Z,2.80
2022-12-25T02:39:20.927Z,2.95
2022-12-25T02:41:56.215Z,2.95
2022-12-25T02:44:46.044Z,2.55
2022-12-25T02:53:51.898Z,2.63
2022-12-25T02:56:42.311Z,2.58
2022-12-25T02:59:31.777Z,2.47
2022-12-25T03:02:20.576Z,2.75
2022-12-25T03:05:11.093Z,2.65
2022-12-25T03:07:43.854Z,3.03
2022-12-25T03:10:34.448Z,2.60
2022-12-25T03:13:15.737Z,2.58
2022-12-25T03:16:04.792Z,2.58
2022-12-25T03:18:36.873Z,2.33
2022-12-25T03:21:25.789Z,2.40
2022-12-25T03:24:19.526Z,2.83
2022-12-25T03:26:59.068Z,2.78
2022-12-25T03:29:53.071Z,3.13
2022-12-25T03:32:29.291Z,3.38
2022-12-25T03:35:25.268Z,4.05
2022-12-25T03:38:49.372Z,4.28
2022-12-25T03:42:02.567Z,3.95
2022-12-25T03:45:37.859Z,4.40
2022-12-25T03:48:28.259Z,4.43
2022-12-25T03:51:29.652Z,4.45
2022-12-25T03:54:25.699Z,3.92
2022-12-25T03:57:15.321Z,4.38
2022-12-25T04:00:03.250Z,4.70
2022-12-25T04:02:57.455Z,3.65
2022-12-25T04:05:46.061Z,4.43
2022-12-25T04:08:34.306Z,4.35
2022-12-25T04:11:22.464Z,4.45
2022-12-25T04:14:10.816Z,4.35
2022-12-25T04:16:58.986Z,4.03
2022-12-25T04:19:47.494Z,4.30
2022-12-25T04:22:36.111Z,4.47
2022-12-25T04:25:24.819Z,3.90
2022-12-25T04:28:13.453Z,3.53
2022-12-25T04:31:01.989Z,4.03
2022-12-25T04:33:49.708Z,4.03
2022-12-25T04:36:19.768Z,4.15
2022-12-25T04:38:49.689Z,4.32
2022-12-25T04:41:19.613Z,4.93
2022-12-25T04:43:49.131Z,6.40
2022-12-25T04:46:18.797Z,5.05
2022-12-25T04:48:48.575Z,5.90
2022-12-25T04:51:23.616Z,5.18
2022-12-25T04:53:54.958Z,5.78
2022-12-25T04:56:24.910Z,5.72
2022-12-25T04:58:54.544Z,6.50
2022-12-25T05:01:24.578Z,6.00
2022-12-25T05:03:54.509Z,5.47
2022-12-25T05:06:24.148Z,4.88
2022-12-25T05:08:54.086Z,6.78
2022-12-25T05:11:23.668Z,5.20
2022-12-25T05:13:53.209Z,5.65
2022-12-25T05:16:23.004Z,4.25
2022-12-25T05:18:53.560Z,5.53
2022-12-25T05:21:23.407Z,4.82
2022-12-25T05:23:54.007Z,5.47
2022-12-25T05:26:26.643Z,4.57
2022-12-25T05:31:26.105Z,4.18
2022-12-25T05:33:55.724Z,4.25
2022-12-25T05:36:25.276Z,4.10
2022-12-25T05:38:54.972Z,3.97
2022-12-25T05:41:27.891Z,3.50
2022-12-25T05:44:02.127Z,3.13
2022-12-25T05:46:31.764Z,3.45
2022-12-25T05:49:01.288Z,2.78
2022-12-25T05:51:31.935Z,3.30
2022-12-25T05:54:01.749Z,3.58
2022-12-25T05:56:31.663Z,2.63
2022-12-25T05:59:01.220Z,2.92
2022-12-25T06:01:30.893Z,2.83
2022-12-25T06:04:00.660Z,3.53
2022-12-25T06:06:30.229Z,4.15
2022-12-25T06:08:59.804Z,4.38
2022-12-25T06:11:29.393Z,4.95
2022-12-25T06:13:59.849Z,3.72
2022-12-25T06:16:35.577Z,3.90
2022-12-25T06:19:08.310Z,3.80
2022-12-25T06:21:38.360Z,3.50
2022-12-25T06:24:08.243Z,3.95
2022-12-25T06:26:37.915Z,4.35
2022-12-25T06:29:07.543Z,3.60
2022-12-25T06:31:37.564Z,3.85
2022-12-25T06:34:07.209Z,4.38
2022-12-25T06:36:39.530Z,4.10
2022-12-25T06:39:09.455Z,4.05
2022-12-25T06:41:39.212Z,3.67
2022-12-25T06:44:08.890Z,3.33
2022-12-25T06:46:38.789Z,3.47
2022-12-25T06:49:08.621Z,3.38
2022-12-25T06:51:38.341Z,3.72
2022-12-25T06:54:10.666Z,3.50
2022-12-25T06:56:41.229Z,2.90
2022-12-25T06:59:13.116Z,2.97
2022-12-25T07:01:53.701Z,3.08
2022-12-25T07:04:23.625Z,3.10
2022-12-25T07:06:53.711Z,3.22
2022-12-25T07:09:23.606Z,3.30
2022-12-25T07:11:53.212Z,2.92
2022-12-25T07:14:24.793Z,3.15
2022-12-25T07:16:54.882Z,3.33
2022-12-25T07:19:24.498Z,2.78
2022-12-25T07:21:54.208Z,3.33
2022-12-25T07:24:25.128Z,2.95
2022-12-25T07:26:55.233Z,2.95
2022-12-25T07:29:24.759Z,3.15
2022-12-25T07:31:54.380Z,3.10
2022-12-25T07:34:25.189Z,3.97
2022-12-25T07:36:57.101Z,2.83
2022-12-25T07:39:26.793Z,3.17
2022-12-25T07:41:56.314Z,3.25
2022-12-25T07:44:29.453Z,3.25
2022-12-25T07:46:59.932Z,3.28
2022-12-25T07:49:29.688Z,3.15
2022-12-25T07:51:59.298Z,3.10
2022-12-25T07:54:28.908Z,2.80
2022-12-25T07:56:58.425Z,2.80
2022-12-25T07:59:29.284Z,2.60
2022-12-25T08:01:59.447Z,2.90
2022-12-25T08:04:29.089Z,3.30
2022-12-25T08:06:58.632Z,2.92
2022-12-25T08:09:28.165Z,3.10
2022-12-25T08:11:57.697Z,3.22
2022-12-25T08:14:27.531Z,2.80
2022-12-25T08:16:57.058Z,2.75
2022-12-25T08:19:26.701Z,2.85
2022-12-25T08:21:56.602Z,2.58
2022-12-25T08:24:27.274Z,2.88
2022-12-25T08:26:57.198Z,3.03
2022-12-25T08:29:26.849Z,3.60
2022-12-25T08:31:56.981Z,2.80
2022-12-25T08:34:26.539Z,2.90
2022-12-25T08:36:56.390Z,3.20
2022-12-25T08:39:26.163Z,3.33
2022-12-25T08:41:55.645Z,3.08
2022-12-25T08:44:25.161Z,3.22
2022-12-25T08:46:54.946Z,3.00
2022-12-25T08:49:24.521Z,3.65
2022-12-25T08:51:54.280Z,4.47
2022-12-25T08:54:23.785Z,3.80
2022-12-25T08:56:57.275Z,4.07
2022-12-25T08:59:32.395Z,3.95
2022-12-25T09:02:02.298Z,3.90
2022-12-25T09:04:31.876Z,3.88
2022-12-25T09:07:01.401Z,3.03
2022-12-25T09:09:30.977Z,3.08
2022-12-25T09:12:00.491Z,3.28
2022-12-25T09:14:30.415Z,3.05
2022-12-25T09:16:59.947Z,2.85
2022-12-25T09:19:29.801Z,2.97
2022-12-25T09:21:59.447Z,2.78
2022-12-25T09:24:29.196Z,2.80
2022-12-25T09:26:58.719Z,2.55
2022-12-25T09:29:28.218Z,3.05
2022-12-25T09:31:58.045Z,2.85
2022-12-25T09:34:27.591Z,2.85
2022-12-25T09:36:57.317Z,2.95
2022-12-25T09:39:26.854Z,2.80
2022-12-25T09:42:18.432Z,2.80
2022-12-25T09:44:55.036Z,3.03
2022-12-25T09:47:33.654Z,3.35
2022-12-25T09:50:14.333Z,3.10
2022-12-25T09:53:05.900Z,3.08
2022-12-25T09:55:40.011Z,2.58
2022-12-25T09:58:14.608Z,2.58
2022-12-25T10:00:54.801Z,2.83
2022-12-25T10:04:03.532Z,2.97
2022-12-25T10:07:10.371Z,3.45
2022-12-25T10:09:58.409Z,3.92
2022-12-25T10:12:37.737Z,3.03
2022-12-25T10:15:16.731Z,3.47
2022-12-25T10:17:49.189Z,3.38
2022-12-25T10:22:53.134Z,3.58
2022-12-25T10:25:25.681Z,3.42
2022-12-25T10:28:12.667Z,3.33
2022-12-25T10:30:46.267Z,3.45
2022-12-25T10:33:17.408Z,2.92
2022-12-25T10:35:48.930Z,2.72
2022-12-25T10:38:22.230Z,2.47
2022-12-25T10:41:28.602Z,3.20
2022-12-25T10:43:59.655Z,2.75
2022-12-25T10:46:32.084Z,3.22
2022-12-25T10:49:04.240Z,2.40
2022-12-25T10:54:27.352Z,2.40
2022-12-25T10:57:06.276Z,2.13
2022-12-25T10:59:59.924Z,1.98
2022-12-25T11:02:32.220Z,2.10
2022-12-25T11:10:30.107Z,1.88
2022-12-25T11:13:01.350Z,2.28
2022-12-25T11:15:37.621Z,2.53
2022-12-25T11:18:25.449Z,2.28
2022-12-25T11:20:58.394Z,2.00
2022-12-25T11:23:31.257Z,1.55
2022-12-25T11:26:03.566Z,1.80
2022-12-25T11:28:36.872Z,2.45
2022-12-25T11:31:21.687Z,1.90
2022-12-25T11:34:29.849Z,1.52
2022-12-25T11:37:01.603Z,2.00
2022-12-25T11:39:35.734Z,2.33
2022-12-25T11:42:33.428Z,2.05
2022-12-25T11:45:18.222Z,2.08
2022-12-25T11:47:57.042Z,1.65
2022-12-25T11:50:36.087Z,1.80
2022-12-25T11:53:11.278Z,1.90
2022-12-25T11:55:50.597Z,1.52
2022-12-25T11:58:37.726Z,1.40
2022-12-25T12:01:31.268Z,1.50
2022-12-25T12:04:08.490Z,1.58
2022-12-25T12:06:53.449Z,1.30
2022-12-25T12:12:10.537Z,1.30
2022-12-25T12:15:10.046Z,1.48
2022-12-25T12:17:39.820Z,1.10
2022-12-25T12:20:15.436Z,1.33
2022-12-25T12:22:51.828Z,1.38
2022-12-25T12:25:22.805Z,1.42
2022-12-25T12:28:05.395Z,1.15
2022-12-25T12:30:37.122Z,1.33
2022-12-25T12:33:09.155Z,1.13
2022-12-25T12:35:41.729Z,1.15
2022-12-25T12:38:20.713Z,1.15
2022-12-25T12:40:55.431Z,1.15
2022-12-25T12:43:43.016Z,1.15
2022-12-25T12:46:31.373Z,1.23
2022-12-25T12:49:21.233Z,1.10
2022-12-25T12:51:52.123Z,1.20
2022-12-25T12:54:29.587Z,1.05
2022-12-25T12:57:03.591Z,1.10
2022-12-25T12:59:42.179Z,1.10
2022-12-25T13:02:58.383Z,1.10
2022-12-25T13:06:13.107Z,1.13
2022-12-25T13:09:20.660Z,1.27
2022-12-25T13:11:52.151Z,1.15
2022-12-25T13:14:24.986Z,1.15
2022-12-25T13:16:56.159Z,1.23
2022-12-25T13:19:28.716Z,1.00
2022-12-25T13:22:02.689Z,1.23
2022-12-25T13:24:35.234Z,1.00
2022-12-25T13:27:27.123Z,1.40
2022-12-25T13:29:57.852Z,1.20
2022-12-25T13:32:33.723Z,1.00
2022-12-25T13:35:03.949Z,1.60
2022-12-25T13:37:33.836Z,1.30
2022-12-25T13:40:06.486Z,0.95
2022-12-25T13:42:43.250Z,1.27
2022-12-25T13:45:16.723Z,0.80
2022-12-25T13:47:54.686Z,0.90
2022-12-25T13:50:32.192Z,1.00
2022-12-25T13:53:19.232Z,1.13
2022-12-25T13:55:53.652Z,0.98
2022-12-25T13:58:27.902Z,0.90
2022-12-25T14:01:00.209Z,0.80
2022-12-25T14:03:41.978Z,1.02
2022-12-25T14:06:26.877Z,0.82
2022-12-25T14:08:59.460Z,1.02
2022-12-25T14:11:31.406Z,1.17
2022-12-25T14:14:09.494Z,1.00
2022-12-25T14:16:44.490Z,1.30
2022-12-25T14:19:35.321Z,0.90
2022-12-25T14:22:22.255Z,1.00
2022-12-25T14:24:52.289Z,1.00
2022-12-25T14:27:33.590Z,1.13
2022-12-25T14:30:04.050Z,0.80
2022-12-25T14:32:42.365Z,0.70
2022-12-25T14:35:19.748Z,0.75
2022-12-25T14:38:02.567Z,0.88
2022-12-25T14:40:35.239Z,0.88
2022-12-25T14:43:07.475Z,0.73
2022-12-25T14:45:42.463Z,1.08
2022-12-25T14:48:25.445Z,1.02
2022-12-25T14:51:05.407Z,1.10
2022-12-25T14:53:40.657Z,1.05
2022-12-25T14:56:11.482Z,0.90
2022-12-25T14:58:51.030Z,0.88
2022-12-25T15:01:37.783Z,0.90
2022-12-25T15:04:13.727Z,0.82
2022-12-25T15:06:57.900Z,0.80
2022-12-25T15:09:30.940Z,0.80
2022-12-25T15:12:01.198Z,0.82
2022-12-25T15:14:32.599Z,0.77
2022-12-25T15:17:03.356Z,0.80
2022-12-25T15:19:40.134Z,0.73
2022-12-25T15:22:14.172Z,1.00
2022-12-25T15:24:43.867Z,0.88
2022-12-25T15:27:22.416Z,0.98
2022-12-25T15:32:43.953Z,0.90
2022-12-25T15:35:23.695Z,0.70
2022-12-25T15:37:53.688Z,0.90
2022-12-25T15:40:23.614Z,0.90
2022-12-25T15:42:56.787Z,0.77
2022-12-25T15:45:29.277Z,0.75
2022-12-25T15:47:59.546Z,0.60
2022-12-25T15:50:31.289Z,0.73
2022-12-25T15:53:01.447Z,0.73
2022-12-25T15:55:31.314Z,0.70
2022-12-25T15:58:00.841Z,0.95
2022-12-25T16:00:30.446Z,1.10
2022-12-25T16:03:01.148Z,0.60
2022-12-25T16:05:31.181Z,0.82
2022-12-25T16:08:01.216Z,0.75
2022-12-25T16:10:36.630Z,1.08
2022-12-25T16:13:08.475Z,0.70
2022-12-25T16:15:38.043Z,0.80
2022-12-25T16:18:08.417Z,0.65
2022-12-25T16:20:38.468Z,0.90
2022-12-25T16:23:08.019Z,0.70
2022-12-25T16:25:37.570Z,0.60
2022-12-25T16:28:10.707Z,0.65
2022-12-25T16:30:41.343Z,0.75
2022-12-25T16:33:12.519Z,0.88
2022-12-25T16:35:42.222Z,0.80
2022-12-25T16:38:12.808Z,0.70
2022-12-25T16:40:42.781Z,0.73
2022-12-25T16:43:12.541Z,0.80
2022-12-25T16:45:42.153Z,0.60
2022-12-25T16:48:13.602Z,0.70
2022-12-25T16:53:17.036Z,1.35
2022-12-25T16:55:46.932Z,0.70
2022-12-25T16:58:16.916Z,0.65
2022-12-25T17:00:49.477Z,0.95
2022-12-25T17:03:19.876Z,0.90
2022-12-25T17:05:49.766Z,0.63
2022-12-25T17:08:19.514Z,0.80
2022-12-25T17:10:49.030Z,0.63
2022-12-25T17:13:18.606Z,0.70
2022-12-25T17:15:50.652Z,0.70
2022-12-25T17:18:23.260Z,0.73
2022-12-25T17:20:56.025Z,0.70
2022-12-25T17:23:25.891Z,0.65
2022-12-25T17:25:55.403Z,0.80
2022-12-25T17:28:24.997Z,0.80
2022-12-25T17:30:55.104Z,0.70
2022-12-25T17:33:24.923Z,0.57
2022-12-25T17:35:57.341Z,0.68
2022-12-25T17:38:33.009Z,0.63
2022-12-25T17:41:06.612Z,0.77
2022-12-25T17:43:38.648Z,0.70
2022-12-25T17:46:20.439Z,0.75
2022-12-25T17:48:51.262Z,0.80
2022-12-25T17:51:23.506Z,0.60
2022-12-25T17:53:56.571Z,0.70
2022-12-25T17:56:27.145Z,0.70
2022-12-25T17:59:00.923Z,0.73
2022-12-25T18:01:31.230Z,0.60
2022-12-25T18:04:01.931Z,0.70
2022-12-25T18:06:31.981Z,0.73
2022-12-25T18:09:01.524Z,0.88
2022-12-25T18:11:37.016Z,0.65
2022-12-25T18:14:10.325Z,0.70
2022-12-25T18:16:43.326Z,0.60
2022-12-25T18:19:15.408Z,0.68
2022-12-25T18:21:45.451Z,0.95
2022-12-25T18:24:15.963Z,0.73
2022-12-25T18:26:46.713Z,0.63
2022-12-25T18:29:16.730Z,0.60
2022-12-25T18:31:46.357Z,0.60
2022-12-25T18:34:16.008Z,0.60
2022-12-25T18:36:46.033Z,0.60
2022-12-25T18:39:15.592Z,0.77
2022-12-25T18:42:03.540Z,0.60
2022-12-25T18:44:34.680Z,0.73
2022-12-25T18:47:04.354Z,0.80
2022-12-25T18:49:34.641Z,0.80
2022-12-25T18:52:50.325Z,0.60
2022-12-25T18:54:56.693Z,0.80
2022-12-25T18:57:26.738Z,0.70
2022-12-25T18:59:56.312Z,0.80
2022-12-25T19:02:26.399Z,0.73
2022-12-25T19:04:57.143Z,0.70
2022-12-25T19:07:27.323Z,0.60
2022-12-25T19:09:56.880Z,0.52
2022-12-25T19:12:26.459Z,0.50
2022-12-25T19:14:56.091Z,0.55
2022-12-25T19:17:31.513Z,0.50
2022-12-25T19:20:02.421Z,0.80
2022-12-25T19:22:31.977Z,0.50
2022-12-25T19:25:01.794Z,0.60
2022-12-25T19:27:31.399Z,0.47
2022-12-25T19:30:01.308Z,0.50
2022-12-25T19:32:30.889Z,0.63
2022-12-25T19:35:05.405Z,0.55
2022-12-25T19:37:37.260Z,0.57
2022-12-25T19:40:08.054Z,0.75
2022-12-25T19:42:38.528Z,0.57
2022-12-25T19:45:08.709Z,0.50
2022-12-25T19:47:38.255Z,0.80
2022-12-25T19:50:08.418Z,0.90
2022-12-25T19:52:38.178Z,0.60
2022-12-25T19:55:08.262Z,0.65
2022-12-25T19:57:38.216Z,0.63
2022-12-25T20:00:08.527Z,0.60
2022-12-25T20:02:43.251Z,0.70
2022-12-25T20:05:13.881Z,0.50
2022-12-25T20:07:43.809Z,0.57
2022-12-25T20:10:13.426Z,0.60
2022-12-25T20:12:42.992Z,0.70
2022-12-25T20:15:13.913Z,0.60
2022-12-25T20:17:44.313Z,0.60
2022-12-25T20:20:14.768Z,0.40
2022-12-25T20:22:44.316Z,0.60
2022-12-25T20:25:15.043Z,0.40
2022-12-25T20:27:45.112Z,0.50
2022-12-25T20:30:16.539Z,0.52
2022-12-25T20:32:50.356Z,0.50
2022-12-25T20:35:20.663Z,0.60
2022-12-25T20:37:50.628Z,0.50
2022-12-25T20:40:20.770Z,0.63
2022-12-25T20:42:50.323Z,0.73
2022-12-25T20:45:19.864Z,0.50
2022-12-25T20:47:49.487Z,0.50
2022-12-25T20:50:19.328Z,0.50
2022-12-25T20:52:49.145Z,0.50
2022-12-25T20:55:18.758Z,0.63
2022-12-25T20:57:48.322Z,0.68
2022-12-25T21:00:17.975Z,0.50
2022-12-25T21:02:48.214Z,0.60
2022-12-25T21:05:18.908Z,0.50
2022-12-25T21:07:49.062Z,0.60
2022-12-25T21:10:18.829Z,0.43
2022-12-25T21:12:48.379Z,0.40
2022-12-25T21:15:18.214Z,0.47
2022-12-25T21:17:47.992Z,0.80
2022-12-25T21:20:17.831Z,0.95
2022-12-25T21:22:47.467Z,0.90
2022-12-25T21:25:17.075Z,0.60
2022-12-25T21:27:46.615Z,1.30
2022-12-25T21:30:16.238Z,0.65
2022-12-25T21:33:04.594Z,0.95
2022-12-25T21:35:38.813Z,0.75
2022-12-25T21:38:08.615Z,0.52
2022-12-25T21:40:39.141Z,0.70
2022-12-25T21:43:09.280Z,0.65
2022-12-25T21:45:39.057Z,0.40
2022-12-25T21:48:08.839Z,0.60
2022-12-25T21:50:57.571Z,0.68
2022-12-25T21:53:27.603Z,0.63
2022-12-25T21:56:03.573Z,0.70
2022-12-25T21:58:34.332Z,0.60
2022-12-25T22:01:07.047Z,1.40
2022-12-25T22:03:37.080Z,0.93
2022-12-25T22:06:25.987Z,1.08
2022-12-25T22:08:55.751Z,0.73
2022-12-25T22:11:45.037Z,0.50
2022-12-25T22:14:52.072Z,1.00
2022-12-25T22:17:53.299Z,0.80
2022-12-25T22:20:31.134Z,0.57
2022-12-25T22:23:00.883Z,0.77
2022-12-25T22:25:31.286Z,0.70
2022-12-25T22:28:01.504Z,0.80
2022-12-25T22:30:31.595Z,0.70
2022-12-25T22:33:01.155Z,0.82
2022-12-25T22:35:31.638Z,1.13
2022-12-25T22:38:01.667Z,0.80
2022-12-25T22:40:31.458Z,0.98
2022-12-25T22:43:01.016Z,0.65
2022-12-25T22:45:30.594Z,0.80
2022-12-25T22:48:00.121Z,0.63
2022-12-25T22:50:29.904Z,0.70
2022-12-25T22:52:59.589Z,0.68
2022-12-25T22:55:29.518Z,0.60
2022-12-25T22:57:59.201Z,0.65
2022-12-25T23:00:28.759Z,0.93
2022-12-25T23:02:58.712Z,0.88
2022-12-25T23:05:28.379Z,0.73
2022-12-25T23:07:58.388Z,0.90
2022-12-25T23:10:28.967Z,0.70
2022-12-25T23:13:16.897Z,1.00
2022-12-25T23:15:49.548Z,0.60
2022-12-25T23:18:38.158Z,0.85
2022-12-25T23:21:26.350Z,0.60
2022-12-25T23:24:14.093Z,0.60
2022-12-25T23:26:43.950Z,1.00
2022-12-25T23:29:31.807Z,0.80
2022-12-25T23:32:01.948Z,0.90
2022-12-25T23:34:31.570Z,0.80
2022-12-25T23:37:01.150Z,0.75
2022-12-25T23:39:30.819Z,0.90
2022-12-25T23:42:01.349Z,1.40
2022-12-25T23:44:31.645Z,1.00
2022-12-25T23:47:01.609Z,0.70
2022-12-25T23:49:31.339Z,1.10
2022-12-25T23:52:00.889Z,1.00
2022-12-25T23:54:32.850Z,0.82
2022-12-25T23:57:02.959Z,1.17
2022-12-25T23:59:33.185Z,0.90
